sensor_id;sensor_type;location;lat;lon;timestamp;temperature;humidity
5130;DHT22;2583;50.946;6.954;2022-09-21T00:03:39;11.60;99.90
5130;DHT22;2583;50.946;6.954;2022-09-21T00:06:15;11.60;99.90
5130;DHT22;2583;50.946;6.954;2022-09-21T00:08:43;11.60;99.90
5130;DHT22;2583;50.946;6.954;2022-09-21T00:11:12;11.50;99.90
5130;DHT22;2583;50.946;6.954;2022-09-21T00:13:39;11.50;99.90
5130;DHT22;2583;50.946;6.954;2022-09-21T00:16:08;11.40;99.90
5130;DHT22;2583;50.946;6.954;2022-09-21T00:18:36;11.40;99.90
5130;DHT22;2583;50.946;6.954;2022-09-21T00:21:09;11.40;99.90
5130;DHT22;2583;50.946;6.954;2022-09-21T00:23:37;11.30;99.90
5130;DHT22;2583;50.946;6.954;2022-09-21T00:26:16;11.40;99.90
5130;DHT22;2583;50.946;6.954;2022-09-21T00:28:43;11.30;99.90
5130;DHT22;2583;50.946;6.954;2022-09-21T00:31:14;11.30;99.90
5130;DHT22;2583;50.946;6.954;2022-09-21T00:33:42;11.30;99.90
5130;DHT22;2583;50.946;6.954;2022-09-21T00:36:14;11.30;99.90
5130;DHT22;2583;50.946;6.954;2022-09-21T00:38:43;11.20;99.90
5130;DHT22;2583;50.946;6.954;2022-09-21T00:41:10;11.20;99.90
5130;DHT22;2583;50.946;6.954;2022-09-21T00:43:46;11.10;99.90
5130;DHT22;2583;50.946;6.954;2022-09-21T00:46:24;11.10;99.90
5130;DHT22;2583;50.946;6.954;2022-09-21T00:48:53;11.10;99.90
5130;DHT22;2583;50.946;6.954;2022-09-21T00:51:20;11.10;99.90
5130;DHT22;2583;50.946;6.954;2022-09-21T00:53:51;11.10;99.90
5130;DHT22;2583;50.946;6.954;2022-09-21T00:56:19;11.10;99.90
5130;DHT22;2583;50.946;6.954;2022-09-21T00:58:48;11.10;99.90
5130;DHT22;2583;50.946;6.954;2022-09-21T01:01:17;11.10;99.90
5130;DHT22;2583;50.946;6.954;2022-09-21T01:03:48;11.00;99.90
5130;DHT22;2583;50.946;6.954;2022-09-21T01:06:18;11.00;99.90
5130;DHT22;2583;50.946;6.954;2022-09-21T01:08:49;11.00;99.90
5130;DHT22;2583;50.946;6.954;2022-09-21T01:22:18;11.00;99.90
5130;DHT22;2583;50.946;6.954;2022-09-21T01:27:38;11.00;99.90
5130;DHT22;2583;50.946;6.954;2022-09-21T01:30:16;11.00;99.90
5130;DHT22;2583;50.946;6.954;2022-09-21T01:32:50;10.90;99.90
5130;DHT22;2583;50.946;6.954;2022-09-21T01:35:23;10.90;99.90
5130;DHT22;2583;50.946;6.954;2022-09-21T01:37:57;10.90;99.90
5130;DHT22;2583;50.946;6.954;2022-09-21T01:40:53;10.90;99.90
5130;DHT22;2583;50.946;6.954;2022-09-21T01:43:25;10.90;99.90
5130;DHT22;2583;50.946;6.954;2022-09-21T01:45:55;11.00;99.90
5130;DHT22;2583;50.946;6.954;2022-09-21T01:48:31;11.00;99.90
5130;DHT22;2583;50.946;6.954;2022-09-21T01:51:02;11.00;99.90
5130;DHT22;2583;50.946;6.954;2022-09-21T01:54:32;10.90;99.90
5130;DHT22;2583;50.946;6.954;2022-09-21T01:56:54;10.90;99.90
5130;DHT22;2583;50.946;6.954;2022-09-21T01:59:48;10.90;99.90
5130;DHT22;2583;50.946;6.954;2022-09-21T02:05:05;10.80;99.90
5130;DHT22;2583;50.946;6.954;2022-09-21T02:07:33;10.80;99.90
5130;DHT22;2583;50.946;6.954;2022-09-21T02:10:02;10.70;99.90
5130;DHT22;2583;50.946;6.954;2022-09-21T02:12:30;10.80;99.90
5130;DHT22;2583;50.946;6.954;2022-09-21T02:14:59;10.70;99.90
5130;DHT22;2583;50.946;6.954;2022-09-21T02:17:40;10.70;99.90
5130;DHT22;2583;50.946;6.954;2022-09-21T02:20:19;10.70;99.90
5130;DHT22;2583;50.946;6.954;2022-09-21T02:28:25;10.70;99.90
5130;DHT22;2583;50.946;6.954;2022-09-21T02:36:54;10.70;99.90
5130;DHT22;2583;50.946;6.954;2022-09-21T02:39:37;10.60;99.90
5130;DHT22;2583;50.946;6.954;2022-09-21T02:42:45;10.60;99.90
5130;DHT22;2583;50.946;6.954;2022-09-21T02:45:13;10.50;99.90
5130;DHT22;2583;50.946;6.954;2022-09-21T02:47:49;10.50;99.90
5130;DHT22;2583;50.946;6.954;2022-09-21T02:50:55;10.50;99.90
5130;DHT22;2583;50.946;6.954;2022-09-21T02:53:26;10.50;99.90
5130;DHT22;2583;50.946;6.954;2022-09-21T02:55:56;10.50;99.90
5130;DHT22;2583;50.946;6.954;2022-09-21T02:58:25;10.50;99.90
5130;DHT22;2583;50.946;6.954;2022-09-21T03:00:55;10.50;99.90
5130;DHT22;2583;50.946;6.954;2022-09-21T03:03:24;10.50;99.90
5130;DHT22;2583;50.946;6.954;2022-09-21T03:05:53;10.50;99.90
5130;DHT22;2583;50.946;6.954;2022-09-21T03:08:21;10.50;99.90
5130;DHT22;2583;50.946;6.954;2022-09-21T03:10:47;10.50;99.90
5130;DHT22;2583;50.946;6.954;2022-09-21T03:13:16;10.40;99.90
5130;DHT22;2583;50.946;6.954;2022-09-21T03:15:43;10.40;99.90
5130;DHT22;2583;50.946;6.954;2022-09-21T03:18:11;10.40;99.90
5130;DHT22;2583;50.946;6.954;2022-09-21T03:20:40;10.40;99.90
5130;DHT22;2583;50.946;6.954;2022-09-21T03:23:11;10.40;99.90
5130;DHT22;2583;50.946;6.954;2022-09-21T03:25:38;10.40;99.90
5130;DHT22;2583;50.946;6.954;2022-09-21T03:28:05;10.40;99.90
5130;DHT22;2583;50.946;6.954;2022-09-21T03:30:32;10.40;99.90
5130;DHT22;2583;50.946;6.954;2022-09-21T03:32:59;10.40;99.90
5130;DHT22;2583;50.946;6.954;2022-09-21T03:35:25;10.40;99.90
5130;DHT22;2583;50.946;6.954;2022-09-21T03:37:52;10.30;99.90
5130;DHT22;2583;50.946;6.954;2022-09-21T03:40:20;10.30;99.90
5130;DHT22;2583;50.946;6.954;2022-09-21T03:42:48;10.30;99.90
5130;DHT22;2583;50.946;6.954;2022-09-21T03:45:15;10.30;99.90
5130;DHT22;2583;50.946;6.954;2022-09-21T03:47:42;10.30;99.90
5130;DHT22;2583;50.946;6.954;2022-09-21T03:50:09;10.30;99.90
5130;DHT22;2583;50.946;6.954;2022-09-21T03:52:36;10.30;99.90
5130;DHT22;2583;50.946;6.954;2022-09-21T03:55:06;10.20;99.90
5130;DHT22;2583;50.946;6.954;2022-09-21T03:57:34;10.20;99.90
5130;DHT22;2583;50.946;6.954;2022-09-21T04:00:04;10.30;99.90
5130;DHT22;2583;50.946;6.954;2022-09-21T04:02:31;10.20;99.90
5130;DHT22;2583;50.946;6.954;2022-09-21T04:04:58;10.10;99.90
5130;DHT22;2583;50.946;6.954;2022-09-21T04:07:25;10.10;99.90
5130;DHT22;2583;50.946;6.954;2022-09-21T04:09:52;10.00;99.90
5130;DHT22;2583;50.946;6.954;2022-09-21T04:12:22;10.00;99.90
5130;DHT22;2583;50.946;6.954;2022-09-21T04:14:49;10.00;99.90
5130;DHT22;2583;50.946;6.954;2022-09-21T04:17:16;9.90;99.90
5130;DHT22;2583;50.946;6.954;2022-09-21T04:19:42;9.80;99.90
5130;DHT22;2583;50.946;6.954;2022-09-21T04:22:11;9.70;99.90
5130;DHT22;2583;50.946;6.954;2022-09-21T04:24:38;9.70;99.90
5130;DHT22;2583;50.946;6.954;2022-09-21T04:27:08;9.60;99.90
5130;DHT22;2583;50.946;6.954;2022-09-21T04:29:34;9.60;99.90
5130;DHT22;2583;50.946;6.954;2022-09-21T04:32:02;9.60;99.90
5130;DHT22;2583;50.946;6.954;2022-09-21T04:34:28;9.60;99.90
5130;DHT22;2583;50.946;6.954;2022-09-21T04:36:57;9.50;99.90
5130;DHT22;2583;50.946;6.954;2022-09-21T04:39:24;9.50;99.90
5130;DHT22;2583;50.946;6.954;2022-09-21T04:41:51;9.50;99.90
5130;DHT22;2583;50.946;6.954;2022-09-21T04:44:18;9.50;99.90
5130;DHT22;2583;50.946;6.954;2022-09-21T04:46:45;9.40;99.90
5130;DHT22;2583;50.946;6.954;2022-09-21T04:49:12;9.40;99.90
5130;DHT22;2583;50.946;6.954;2022-09-21T04:51:38;9.40;99.90
5130;DHT22;2583;50.946;6.954;2022-09-21T04:54:05;9.40;99.90
5130;DHT22;2583;50.946;6.954;2022-09-21T04:56:32;9.40;99.90
5130;DHT22;2583;50.946;6.954;2022-09-21T04:58:59;9.30;99.90
5130;DHT22;2583;50.946;6.954;2022-09-21T05:01:26;9.30;99.90
5130;DHT22;2583;50.946;6.954;2022-09-21T05:03:53;9.30;99.90
5130;DHT22;2583;50.946;6.954;2022-09-21T05:06:20;9.20;99.90
5130;DHT22;2583;50.946;6.954;2022-09-21T05:08:47;9.20;99.90
5130;DHT22;2583;50.946;6.954;2022-09-21T05:11:32;9.20;99.90
5130;DHT22;2583;50.946;6.954;2022-09-21T05:13:59;9.20;99.90
5130;DHT22;2583;50.946;6.954;2022-09-21T05:16:25;9.20;99.90
5130;DHT22;2583;50.946;6.954;2022-09-21T05:18:53;9.20;99.90
5130;DHT22;2583;50.946;6.954;2022-09-21T05:21:22;9.10;99.90
5130;DHT22;2583;50.946;6.954;2022-09-21T05:23:49;9.10;99.90
5130;DHT22;2583;50.946;6.954;2022-09-21T05:26:16;9.20;99.90
5130;DHT22;2583;50.946;6.954;2022-09-21T05:28:43;9.10;99.90
5130;DHT22;2583;50.946;6.954;2022-09-21T05:34:02;9.30;99.90
5130;DHT22;2583;50.946;6.954;2022-09-21T05:37:51;9.30;99.90
5130;DHT22;2583;50.946;6.954;2022-09-21T05:39:46;9.30;99.90
5130;DHT22;2583;50.946;6.954;2022-09-21T05:42:13;9.40;99.90
5130;DHT22;2583;50.946;6.954;2022-09-21T05:44:40;9.40;99.90
5130;DHT22;2583;50.946;6.954;2022-09-21T05:52:41;9.50;99.90
5130;DHT22;2583;50.946;6.954;2022-09-21T05:57:52;9.50;99.90
5130;DHT22;2583;50.946;6.954;2022-09-21T06:00:22;9.40;99.90
5130;DHT22;2583;50.946;6.954;2022-09-21T06:05:43;9.40;99.90
5130;DHT22;2583;50.946;6.954;2022-09-21T06:08:10;9.50;99.90
5130;DHT22;2583;50.946;6.954;2022-09-21T06:10:36;9.50;99.90
5130;DHT22;2583;50.946;6.954;2022-09-21T06:13:03;9.50;99.90
5130;DHT22;2583;50.946;6.954;2022-09-21T06:15:30;9.60;99.90
5130;DHT22;2583;50.946;6.954;2022-09-21T06:17:57;9.60;99.90
5130;DHT22;2583;50.946;6.954;2022-09-21T06:20:24;9.70;99.90
5130;DHT22;2583;50.946;6.954;2022-09-21T06:22:51;9.80;99.90
5130;DHT22;2583;50.946;6.954;2022-09-21T06:25:18;9.80;99.90
5130;DHT22;2583;50.946;6.954;2022-09-21T06:27:45;9.80;99.90
5130;DHT22;2583;50.946;6.954;2022-09-21T06:30:12;9.80;99.90
5130;DHT22;2583;50.946;6.954;2022-09-21T06:32:39;9.70;99.90
5130;DHT22;2583;50.946;6.954;2022-09-21T06:35:06;9.70;99.90
5130;DHT22;2583;50.946;6.954;2022-09-21T06:37:33;9.70;99.90
5130;DHT22;2583;50.946;6.954;2022-09-21T06:40:00;9.70;99.90
5130;DHT22;2583;50.946;6.954;2022-09-21T06:42:27;9.70;99.90
5130;DHT22;2583;50.946;6.954;2022-09-21T06:44:53;9.70;99.90
5130;DHT22;2583;50.946;6.954;2022-09-21T06:47:21;9.70;99.90
5130;DHT22;2583;50.946;6.954;2022-09-21T06:49:47;9.80;99.90
5130;DHT22;2583;50.946;6.954;2022-09-21T06:52:14;9.90;99.90
5130;DHT22;2583;50.946;6.954;2022-09-21T06:54:41;9.80;99.90
5130;DHT22;2583;50.946;6.954;2022-09-21T06:57:08;9.80;99.90
5130;DHT22;2583;50.946;6.954;2022-09-21T06:59:34;9.80;99.90
5130;DHT22;2583;50.946;6.954;2022-09-21T07:02:01;9.80;99.90
5130;DHT22;2583;50.946;6.954;2022-09-21T07:04:29;9.90;99.90
5130;DHT22;2583;50.946;6.954;2022-09-21T07:06:57;9.90;99.90
5130;DHT22;2583;50.946;6.954;2022-09-21T07:09:28;10.00;99.90
5130;DHT22;2583;50.946;6.954;2022-09-21T07:12:15;9.90;99.90
5130;DHT22;2583;50.946;6.954;2022-09-21T07:14:42;10.10;99.90
5130;DHT22;2583;50.946;6.954;2022-09-21T07:17:11;10.10;99.90
5130;DHT22;2583;50.946;6.954;2022-09-21T07:19:41;10.20;99.90
5130;DHT22;2583;50.946;6.954;2022-09-21T07:22:08;10.20;99.90
5130;DHT22;2583;50.946;6.954;2022-09-21T07:24:34;10.20;99.90
5130;DHT22;2583;50.946;6.954;2022-09-21T07:27:01;10.20;99.90
5130;DHT22;2583;50.946;6.954;2022-09-21T07:29:29;10.30;99.90
5130;DHT22;2583;50.946;6.954;2022-09-21T07:31:55;10.30;99.90
5130;DHT22;2583;50.946;6.954;2022-09-21T07:34:22;10.40;99.90
5130;DHT22;2583;50.946;6.954;2022-09-21T07:36:49;10.40;99.90
5130;DHT22;2583;50.946;6.954;2022-09-21T07:39:15;10.50;99.90
5130;DHT22;2583;50.946;6.954;2022-09-21T07:41:42;10.60;99.90
5130;DHT22;2583;50.946;6.954;2022-09-21T07:44:09;10.50;99.90
5130;DHT22;2583;50.946;6.954;2022-09-21T07:46:35;10.50;99.90
5130;DHT22;2583;50.946;6.954;2022-09-21T07:49:06;10.60;99.90
5130;DHT22;2583;50.946;6.954;2022-09-21T07:51:33;10.70;99.90
5130;DHT22;2583;50.946;6.954;2022-09-21T07:54:00;10.80;99.90
5130;DHT22;2583;50.946;6.954;2022-09-21T07:56:26;10.90;99.90
5130;DHT22;2583;50.946;6.954;2022-09-21T07:58:53;11.00;99.90
5130;DHT22;2583;50.946;6.954;2022-09-21T08:01:34;11.00;99.90
5130;DHT22;2583;50.946;6.954;2022-09-21T08:04:01;11.10;99.90
5130;DHT22;2583;50.946;6.954;2022-09-21T08:06:29;11.30;99.90
5130;DHT22;2583;50.946;6.954;2022-09-21T08:08:59;11.30;99.90
5130;DHT22;2583;50.946;6.954;2022-09-21T08:11:27;11.40;99.90
5130;DHT22;2583;50.946;6.954;2022-09-21T08:13:57;11.40;99.90
5130;DHT22;2583;50.946;6.954;2022-09-21T08:16:25;11.50;99.90
5130;DHT22;2583;50.946;6.954;2022-09-21T08:18:52;11.70;99.90
5130;DHT22;2583;50.946;6.954;2022-09-21T08:21:19;11.70;99.90
5130;DHT22;2583;50.946;6.954;2022-09-21T08:23:47;11.90;99.90
5130;DHT22;2583;50.946;6.954;2022-09-21T08:26:17;12.10;99.90
5130;DHT22;2583;50.946;6.954;2022-09-21T08:28:46;12.20;99.90
5130;DHT22;2583;50.946;6.954;2022-09-21T08:31:18;12.30;99.90
5130;DHT22;2583;50.946;6.954;2022-09-21T08:33:46;12.40;99.90
5130;DHT22;2583;50.946;6.954;2022-09-21T08:36:13;12.50;99.90
5130;DHT22;2583;50.946;6.954;2022-09-21T08:38:40;12.70;99.90
5130;DHT22;2583;50.946;6.954;2022-09-21T08:44:23;12.80;99.90
5130;DHT22;2583;50.946;6.954;2022-09-21T08:49:46;13.00;99.90
5130;DHT22;2583;50.946;6.954;2022-09-21T08:52:18;13.10;99.90
5130;DHT22;2583;50.946;6.954;2022-09-21T08:55:02;13.30;99.90
5130;DHT22;2583;50.946;6.954;2022-09-21T08:57:32;13.60;99.90
5130;DHT22;2583;50.946;6.954;2022-09-21T09:00:00;13.70;99.90
5130;DHT22;2583;50.946;6.954;2022-09-21T09:08:17;13.90;99.90
5130;DHT22;2583;50.946;6.954;2022-09-21T09:21:45;14.00;99.90
5130;DHT22;2583;50.946;6.954;2022-09-21T09:24:23;14.10;99.90
5130;DHT22;2583;50.946;6.954;2022-09-21T09:26:51;14.20;99.90
5130;DHT22;2583;50.946;6.954;2022-09-21T09:32:02;14.40;99.90
5130;DHT22;2583;50.946;6.954;2022-09-21T09:34:40;14.50;99.90
5130;DHT22;2583;50.946;6.954;2022-09-21T09:37:16;14.60;99.90
5130;DHT22;2583;50.946;6.954;2022-09-21T09:39:49;14.70;99.90
5130;DHT22;2583;50.946;6.954;2022-09-21T09:42:22;14.60;99.90
5130;DHT22;2583;50.946;6.954;2022-09-21T09:50:29;15.10;99.90
5130;DHT22;2583;50.946;6.954;2022-09-21T09:53:19;15.30;99.40
5130;DHT22;2583;50.946;6.954;2022-09-21T09:55:48;15.40;99.90
5130;DHT22;2583;50.946;6.954;2022-09-21T10:01:08;15.50;92.80
5130;DHT22;2583;50.946;6.954;2022-09-21T10:04:10;15.60;93.50
5130;DHT22;2583;50.946;6.954;2022-09-21T10:06:38;15.70;90.80
5130;DHT22;2583;50.946;6.954;2022-09-21T10:09:24;15.90;85.80
5130;DHT22;2583;50.946;6.954;2022-09-21T10:12:17;15.90;82.80
5130;DHT22;2583;50.946;6.954;2022-09-21T10:14:48;15.90;74.80
5130;DHT22;2583;50.946;6.954;2022-09-21T10:17:16;16.00;71.50
5130;DHT22;2583;50.946;6.954;2022-09-21T10:19:44;16.10;71.00
5130;DHT22;2583;50.946;6.954;2022-09-21T10:22:17;16.00;70.60
5130;DHT22;2583;50.946;6.954;2022-09-21T10:24:53;16.10;74.40
5130;DHT22;2583;50.946;6.954;2022-09-21T10:27:32;16.20;71.20
5130;DHT22;2583;50.946;6.954;2022-09-21T10:29:59;16.30;70.00
5130;DHT22;2583;50.946;6.954;2022-09-21T10:32:27;16.40;63.30
5130;DHT22;2583;50.946;6.954;2022-09-21T10:35:13;16.50;66.30
5130;DHT22;2583;50.946;6.954;2022-09-21T10:37:47;16.70;65.20
5130;DHT22;2583;50.946;6.954;2022-09-21T10:42:48;16.80;60.10
5130;DHT22;2583;50.946;6.954;2022-09-21T10:45:20;16.90;58.80
5130;DHT22;2583;50.946;6.954;2022-09-21T10:47:55;16.90;56.10
5130;DHT22;2583;50.946;6.954;2022-09-21T10:55:46;16.90;51.70
5130;DHT22;2583;50.946;6.954;2022-09-21T10:58:36;17.10;49.50
5130;DHT22;2583;50.946;6.954;2022-09-21T11:01:20;17.10;50.10
5130;DHT22;2583;50.946;6.954;2022-09-21T11:03:59;17.20;50.80
5130;DHT22;2583;50.946;6.954;2022-09-21T11:06:32;17.20;48.50
5130;DHT22;2583;50.946;6.954;2022-09-21T11:14:52;17.20;48.10
5130;DHT22;2583;50.946;6.954;2022-09-21T11:17:35;17.30;48.40
5130;DHT22;2583;50.946;6.954;2022-09-21T11:22:49;17.20;48.80
5130;DHT22;2583;50.946;6.954;2022-09-21T11:25:40;17.30;48.10
5130;DHT22;2583;50.946;6.954;2022-09-21T11:29:14;17.40;48.50
5130;DHT22;2583;50.946;6.954;2022-09-21T11:37:06;18.00;45.20
5130;DHT22;2583;50.946;6.954;2022-09-21T11:39:52;18.10;44.00
5130;DHT22;2583;50.946;6.954;2022-09-21T11:45:16;18.20;44.90
5130;DHT22;2583;50.946;6.954;2022-09-21T12:04:52;18.90;40.90
5130;DHT22;2583;50.946;6.954;2022-09-21T12:13:18;19.40;40.10
5130;DHT22;2583;50.946;6.954;2022-09-21T12:16:01;19.50;38.10
5130;DHT22;2583;50.946;6.954;2022-09-21T12:24:04;19.80;35.30
5130;DHT22;2583;50.946;6.954;2022-09-21T12:26:40;19.90;33.90
5130;DHT22;2583;50.946;6.954;2022-09-21T12:29:24;20.00;32.90
5130;DHT22;2583;50.946;6.954;2022-09-21T12:32:06;20.20;34.10
5130;DHT22;2583;50.946;6.954;2022-09-21T12:34:39;20.00;31.80
5130;DHT22;2583;50.946;6.954;2022-09-21T12:39:52;20.30;33.30
5130;DHT22;2583;50.946;6.954;2022-09-21T12:42:30;20.40;33.10
5130;DHT22;2583;50.946;6.954;2022-09-21T12:53:01;20.60;29.10
5130;DHT22;2583;50.946;6.954;2022-09-21T12:55:42;20.70;29.50
5130;DHT22;2583;50.946;6.954;2022-09-21T13:07:05;21.30;28.20
5130;DHT22;2583;50.946;6.954;2022-09-21T13:09:39;20.90;27.70
5130;DHT22;2583;50.946;6.954;2022-09-21T13:12:22;20.50;27.90
5130;DHT22;2583;50.946;6.954;2022-09-21T13:14:58;20.10;28.20
5130;DHT22;2583;50.946;6.954;2022-09-21T13:17:29;20.10;28.50
5130;DHT22;2583;50.946;6.954;2022-09-21T13:20:04;20.00;27.60
5130;DHT22;2583;50.946;6.954;2022-09-21T13:22:33;19.80;27.70
5130;DHT22;2583;50.946;6.954;2022-09-21T13:25:18;19.60;28.50
5130;DHT22;2583;50.946;6.954;2022-09-21T13:28:04;19.40;27.60
5130;DHT22;2583;50.946;6.954;2022-09-21T13:49:29;20.30;23.40
5130;DHT22;2583;50.946;6.954;2022-09-21T13:54:32;19.60;23.50
5130;DHT22;2583;50.946;6.954;2022-09-21T13:59:43;19.10;24.10
5130;DHT22;2583;50.946;6.954;2022-09-21T14:02:43;20.10;22.00
5130;DHT22;2583;50.946;6.954;2022-09-21T14:08:05;21.40;20.80
5130;DHT22;2583;50.946;6.954;2022-09-21T14:10:36;21.00;20.20
5130;DHT22;2583;50.946;6.954;2022-09-21T14:13:20;20.70;20.90
5130;DHT22;2583;50.946;6.954;2022-09-21T14:15:49;20.40;20.30
5130;DHT22;2583;50.946;6.954;2022-09-21T14:18:20;20.20;22.40
5130;DHT22;2583;50.946;6.954;2022-09-21T14:23:37;19.70;27.10
5130;DHT22;2583;50.946;6.954;2022-09-21T14:26:30;19.60;28.10
5130;DHT22;2583;50.946;6.954;2022-09-21T14:29:12;19.60;28.10
5130;DHT22;2583;50.946;6.954;2022-09-21T14:31:41;19.20;28.30
5130;DHT22;2583;50.946;6.954;2022-09-21T14:34:19;19.20;29.00
5130;DHT22;2583;50.946;6.954;2022-09-21T14:36:51;19.10;28.90
5130;DHT22;2583;50.946;6.954;2022-09-21T14:39:35;19.10;28.60
5130;DHT22;2583;50.946;6.954;2022-09-21T14:42:08;18.90;28.50
5130;DHT22;2583;50.946;6.954;2022-09-21T14:44:38;18.80;28.90
5130;DHT22;2583;50.946;6.954;2022-09-21T14:47:32;18.60;29.10
5130;DHT22;2583;50.946;6.954;2022-09-21T14:50:12;18.60;29.10
5130;DHT22;2583;50.946;6.954;2022-09-21T14:55:15;18.40;29.90
5130;DHT22;2583;50.946;6.954;2022-09-21T14:58:25;18.30;30.00
5130;DHT22;2583;50.946;6.954;2022-09-21T15:00:43;18.30;30.30
5130;DHT22;2583;50.946;6.954;2022-09-21T15:06:10;18.20;30.40
5130;DHT22;2583;50.946;6.954;2022-09-21T15:12:58;18.20;30.90
5130;DHT22;2583;50.946;6.954;2022-09-21T15:15:46;18.20;30.90
5130;DHT22;2583;50.946;6.954;2022-09-21T15:18:21;18.20;31.30
5130;DHT22;2583;50.946;6.954;2022-09-21T15:20:58;18.00;30.80
5130;DHT22;2583;50.946;6.954;2022-09-21T15:23:32;18.00;31.70
5130;DHT22;2583;50.946;6.954;2022-09-21T15:26:08;17.90;31.40
5130;DHT22;2583;50.946;6.954;2022-09-21T15:28:43;17.90;31.00
5130;DHT22;2583;50.946;6.954;2022-09-21T15:31:37;17.80;31.20
5130;DHT22;2583;50.946;6.954;2022-09-21T15:34:06;17.70;32.20
5130;DHT22;2583;50.946;6.954;2022-09-21T15:36:38;17.70;31.60
5130;DHT22;2583;50.946;6.954;2022-09-21T15:39:05;17.60;31.90
5130;DHT22;2583;50.946;6.954;2022-09-21T15:41:44;17.50;32.80
5130;DHT22;2583;50.946;6.954;2022-09-21T15:44:21;17.40;32.90
5130;DHT22;2583;50.946;6.954;2022-09-21T15:46:54;17.40;32.90
5130;DHT22;2583;50.946;6.954;2022-09-21T15:49:23;17.30;32.90
5130;DHT22;2583;50.946;6.954;2022-09-21T15:57:02;17.30;32.90
5130;DHT22;2583;50.946;6.954;2022-09-21T15:59:34;17.20;33.30
5130;DHT22;2583;50.946;6.954;2022-09-21T16:02:16;17.10;33.10
5130;DHT22;2583;50.946;6.954;2022-09-21T16:04:47;17.10;33.60
5130;DHT22;2583;50.946;6.954;2022-09-21T16:07:36;17.10;34.50
5130;DHT22;2583;50.946;6.954;2022-09-21T16:13:08;16.90;34.60
5130;DHT22;2583;50.946;6.954;2022-09-21T16:16:10;16.90;34.10
5130;DHT22;2583;50.946;6.954;2022-09-21T16:18:48;16.90;34.20
5130;DHT22;2583;50.946;6.954;2022-09-21T16:21:29;16.90;34.50
5130;DHT22;2583;50.946;6.954;2022-09-21T16:24:18;16.90;34.00
5130;DHT22;2583;50.946;6.954;2022-09-21T16:26:59;16.90;33.80
5130;DHT22;2583;50.946;6.954;2022-09-21T16:29:37;16.90;34.30
5130;DHT22;2583;50.946;6.954;2022-09-21T16:32:40;16.80;34.10
5130;DHT22;2583;50.946;6.954;2022-09-21T16:35:26;16.80;33.70
5130;DHT22;2583;50.946;6.954;2022-09-21T16:37:57;16.70;34.80
5130;DHT22;2583;50.946;6.954;2022-09-21T16:40:25;16.70;34.50
5130;DHT22;2583;50.946;6.954;2022-09-21T16:42:53;16.70;33.80
5130;DHT22;2583;50.946;6.954;2022-09-21T16:45:26;16.70;33.70
5130;DHT22;2583;50.946;6.954;2022-09-21T16:47:54;16.70;34.70
5130;DHT22;2583;50.946;6.954;2022-09-21T16:50:23;16.70;33.90
5130;DHT22;2583;50.946;6.954;2022-09-21T16:52:50;16.70;34.50
5130;DHT22;2583;50.946;6.954;2022-09-21T16:55:20;16.60;35.20
5130;DHT22;2583;50.946;6.954;2022-09-21T16:57:53;16.50;35.50
5130;DHT22;2583;50.946;6.954;2022-09-21T17:00:20;16.50;35.80
5130;DHT22;2583;50.946;6.954;2022-09-21T17:02:47;16.50;35.90
5130;DHT22;2583;50.946;6.954;2022-09-21T17:05:14;16.40;34.60
5130;DHT22;2583;50.946;6.954;2022-09-21T17:07:56;16.40;35.70
5130;DHT22;2583;50.946;6.954;2022-09-21T17:10:27;16.30;36.00
5130;DHT22;2583;50.946;6.954;2022-09-21T17:12:55;16.20;36.80
5130;DHT22;2583;50.946;6.954;2022-09-21T17:15:23;16.20;35.90
5130;DHT22;2583;50.946;6.954;2022-09-21T17:17:50;16.10;37.30
5130;DHT22;2583;50.946;6.954;2022-09-21T17:20:22;16.00;37.10
5130;DHT22;2583;50.946;6.954;2022-09-21T17:22:51;16.00;37.70
5130;DHT22;2583;50.946;6.954;2022-09-21T17:25:18;15.90;37.80
5130;DHT22;2583;50.946;6.954;2022-09-21T17:27:45;15.80;38.50
5130;DHT22;2583;50.946;6.954;2022-09-21T17:30:13;15.70;39.00
5130;DHT22;2583;50.946;6.954;2022-09-21T17:32:41;15.70;39.50
5130;DHT22;2583;50.946;6.954;2022-09-21T17:35:30;15.60;40.10
5130;DHT22;2583;50.946;6.954;2022-09-21T17:37:57;15.50;40.50
5130;DHT22;2583;50.946;6.954;2022-09-21T17:40:25;15.50;41.50
5130;DHT22;2583;50.946;6.954;2022-09-21T17:43:02;15.40;42.50
5130;DHT22;2583;50.946;6.954;2022-09-21T17:48:28;15.20;45.00
5130;DHT22;2583;50.946;6.954;2022-09-21T17:51:00;15.10;46.10
5130;DHT22;2583;50.946;6.954;2022-09-21T17:53:27;15.00;47.70
5130;DHT22;2583;50.946;6.954;2022-09-21T17:58:53;15.00;50.00
5130;DHT22;2583;50.946;6.954;2022-09-21T18:03:59;14.90;54.10
5130;DHT22;2583;50.946;6.954;2022-09-21T18:06:27;14.80;55.90
5130;DHT22;2583;50.946;6.954;2022-09-21T18:08:55;14.70;57.70
5130;DHT22;2583;50.946;6.954;2022-09-21T18:17:02;14.60;65.80
5130;DHT22;2583;50.946;6.954;2022-09-21T18:19:48;14.50;69.50
5130;DHT22;2583;50.946;6.954;2022-09-21T18:24:57;14.40;69.60
5130;DHT22;2583;50.946;6.954;2022-09-21T18:27:24;14.40;71.10
5130;DHT22;2583;50.946;6.954;2022-09-21T18:29:51;14.30;72.70
5130;DHT22;2583;50.946;6.954;2022-09-21T18:38:36;14.20;81.80
5130;DHT22;2583;50.946;6.954;2022-09-21T18:41:37;14.20;84.30
5130;DHT22;2583;50.946;6.954;2022-09-21T18:44:28;14.10;86.00
5130;DHT22;2583;50.946;6.954;2022-09-21T18:47:21;14.10;90.60
5130;DHT22;2583;50.946;6.954;2022-09-21T18:52:48;14.00;89.00
5130;DHT22;2583;50.946;6.954;2022-09-21T18:55:23;14.00;83.10
5130;DHT22;2583;50.946;6.954;2022-09-21T18:57:54;14.00;86.10
5130;DHT22;2583;50.946;6.954;2022-09-21T19:00:21;13.90;83.00
5130;DHT22;2583;50.946;6.954;2022-09-21T19:02:48;13.90;86.00
5130;DHT22;2583;50.946;6.954;2022-09-21T19:05:38;13.90;83.80
5130;DHT22;2583;50.946;6.954;2022-09-21T19:08:17;13.90;85.50
5130;DHT22;2583;50.946;6.954;2022-09-21T19:10:56;13.90;83.50
5130;DHT22;2583;50.946;6.954;2022-09-21T19:22:04;13.80;89.00
5130;DHT22;2583;50.946;6.954;2022-09-21T19:25:03;13.80;90.20
5130;DHT22;2583;50.946;6.954;2022-09-21T19:27:58;13.80;87.10
5130;DHT22;2583;50.946;6.954;2022-09-21T19:30:26;13.90;90.10
5130;DHT22;2583;50.946;6.954;2022-09-21T19:32:54;13.90;90.40
5130;DHT22;2583;50.946;6.954;2022-09-21T19:35:32;13.80;90.60
5130;DHT22;2583;50.946;6.954;2022-09-21T19:38:00;13.70;91.30
5130;DHT22;2583;50.946;6.954;2022-09-21T19:40:30;13.70;93.40
5130;DHT22;2583;50.946;6.954;2022-09-21T19:49:07;13.50;97.70
5130;DHT22;2583;50.946;6.954;2022-09-21T19:51:50;13.40;98.70
5130;DHT22;2583;50.946;6.954;2022-09-21T19:54:22;13.40;99.70
5130;DHT22;2583;50.946;6.954;2022-09-21T19:57:26;13.30;99.90
5130;DHT22;2583;50.946;6.954;2022-09-21T20:00:13;13.30;99.90
5130;DHT22;2583;50.946;6.954;2022-09-21T20:21:44;13.00;99.90
5130;DHT22;2583;50.946;6.954;2022-09-21T20:24:29;13.00;99.90
5130;DHT22;2583;50.946;6.954;2022-09-21T20:26:57;12.90;99.90
5130;DHT22;2583;50.946;6.954;2022-09-21T20:29:24;12.90;99.90
5130;DHT22;2583;50.946;6.954;2022-09-21T20:31:51;12.90;99.90
5130;DHT22;2583;50.946;6.954;2022-09-21T20:34:18;12.80;99.90
5130;DHT22;2583;50.946;6.954;2022-09-21T20:36:45;12.80;99.90
5130;DHT22;2583;50.946;6.954;2022-09-21T20:39:12;12.70;99.90
5130;DHT22;2583;50.946;6.954;2022-09-21T20:41:39;12.70;99.90
5130;DHT22;2583;50.946;6.954;2022-09-21T20:44:10;12.70;99.90
5130;DHT22;2583;50.946;6.954;2022-09-21T20:46:37;12.70;99.90
5130;DHT22;2583;50.946;6.954;2022-09-21T20:49:04;12.80;99.90
5130;DHT22;2583;50.946;6.954;2022-09-21T20:51:34;12.80;99.90
5130;DHT22;2583;50.946;6.954;2022-09-21T20:54:02;12.70;99.90
5130;DHT22;2583;50.946;6.954;2022-09-21T20:56:29;12.70;99.90
5130;DHT22;2583;50.946;6.954;2022-09-21T20:58:56;12.70;99.90